Time,TemperatureF,DewpointF,PressureIn,WindDirection,WindDirectionDegrees,WindSpeedMPH,WindSpeedGustMPH,Humidity,HourlyPrecipIn,Conditions,Clouds,dailyrainin,SoftwareType,DateUTC
2013-05-17 00:00:00,62.6,62.0,29.94,SSE,154,0.0,0.0,98,0.00,,---,0.32,VWS V14.01,2013-05-17 04:00:00,
2013-05-17 00:01:00,62.6,62.0,29.94,SSE,154,0.0,0.0,98,0.00,,---,0.32,VWS V14.01,2013-05-17 04:01:00,
2013-05-17 00:06:00,62.7,62.1,29.94,SSE,154,0.0,0.0,98,0.00,,---,0.00,VWS V14.01,2013-05-17 04:06:00,
2013-05-17 00:11:00,62.6,62.0,29.94,SSE,153,0.0,0.0,98,0.00,,---,0.00,VWS V14.01,2013-05-17 04:11:00,
2013-05-17 00:16:00,62.5,61.9,29.94,SSE,154,0.0,0.0,98,0.00,,---,0.00,VWS V14.01,2013-05-17 04:16:00,
2013-05-17 00:21:00,62.4,61.8,29.94,SSE,154,0.0,0.0,98,0.00,,---,0.00,VWS V14.01,2013-05-17 04:21:00,
2013-05-17 00:26:00,62.3,61.7,29.94,SSE,153,0.0,0.0,98,0.00,,---,0.00,VWS V14.01,2013-05-17 04:26:00,
2013-05-17 00:30:00,62.1,61.5,29.94,SSE,154,0.0,0.0,98,0.00,,---,0.00,VWS V15.00,2013-05-17 04:30:00,
2013-05-17 00:31:00,62.1,61.5,29.94,SSE,153,0.0,0.0,98,0.00,,---,0.00,VWS V14.01,2013-05-17 04:31:00,
2013-05-17 00:36:00,61.8,61.2,29.95,SSE,154,0.0,0.0,98,0.00,,---,0.00,VWS V14.01,2013-05-17 04:36:00,
2013-05-17 00:41:00,61.7,61.1,29.94,SSE,154,0.0,0.0,98,0.00,,---,0.00,VWS V14.01,2013-05-17 04:41:00,
2013-05-17 00:46:00,61.6,61.0,29.95,SSE,153,0.0,0.0,98,0.00,,---,0.00,VWS V14.01,2013-05-17 04:46:00,
2013-05-17 00:51:00,61.6,61.3,29.95,SSE,154,0.0,0.0,99,0.00,,---,0.00,VWS V14.01,2013-05-17 04:51:00,
2013-05-17 00:56:00,61.6,61.3,29.95,SSE,154,0.0,0.0,99,0.00,,---,0.00,VWS V14.01,2013-05-17 04:56:00,
2013-05-17 01:00:00,61.8,61.5,29.95,SSE,153,0.0,0.0,99,0.00,,---,0.00,VWS V15.00,2013-05-17 05:00:00,
2013-05-17 01:01:00,61.8,61.5,29.95,SSE,154,0.0,0.0,99,0.00,,---,0.00,VWS V14.01,2013-05-17 05:01:00,
2013-05-17 01:06:00,61.7,61.4,29.95,SSE,154,0.0,0.0,99,0.00,,---,0.00,VWS V14.01,2013-05-17 05:06:00,
2013-05-17 01:11:00,61.9,61.6,29.95,SSE,154,0.0,0.0,99,0.00,,---,0.00,VWS V14.01,2013-05-17 05:11:00,
2013-05-17 01:16:00,61.8,61.5,29.95,SSE,154,0.0,0.0,99,0.00,,---,0.00,VWS V14.01,2013-05-17 05:16:00,
2013-05-17 01:21:00,61.7,61.4,29.95,SSE,153,0.0,0.0,99,0.00,,---,0.00,VWS V14.01,2013-05-17 05:21:00,
2013-05-17 01:26:00,61.7,61.4,29.95,SSE,154,0.0,0.0,99,0.00,,---,0.00,VWS V14.01,2013-05-17 05:26:00,
2013-05-17 01:30:00,61.5,61.2,29.95,SSE,153,0.0,0.0,99,0.00,,---,0.00,VWS V15.00,2013-05-17 05:30:00,
2013-05-17 01:31:00,61.5,61.2,29.95,SSE,154,0.0,0.0,99,0.00,,---,0.00,VWS V14.01,2013-05-17 05:31:00,
2013-05-17 01:36:00,61.1,60.8,29.95,SSE,154,0.0,0.0,99,0.00,,---,0.00,VWS V14.01,2013-05-17 05:36:00,
2013-05-17 01:41:00,60.9,60.6,29.95,SSE,154,0.0,0.0,99,0.00,,---,0.00,VWS V14.01,2013-05-17 05:41:00,
2013-05-17 01:46:00,61.0,60.7,29.95,SSE,154,0.0,0.0,99,0.00,,---,0.00,VWS V14.01,2013-05-17 05:46:00,
2013-05-17 01:51:00,61.1,60.8,29.95,SSE,154,0.0,0.0,99,0.00,,---,0.00,VWS V14.01,2013-05-17 05:51:00,
2013-05-17 01:56:00,60.9,60.6,29.95,SSE,153,0.0,0.0,99,0.00,,---,0.00,VWS V14.01,2013-05-17 05:56:00,
2013-05-17 02:00:00,60.6,60.3,29.95,SSE,154,0.0,0.0,99,0.00,,---,0.00,VWS V15.00,2013-05-17 06:00:00,
2013-05-17 02:01:00,60.7,60.4,29.95,SSE,154,0.0,0.0,99,0.00,,---,0.00,VWS V14.01,2013-05-17 06:01:00,
2013-05-17 02:06:00,60.7,60.4,29.95,SSE,153,0.0,0.0,99,0.00,,---,0.00,VWS V14.01,2013-05-17 06:06:00,
2013-05-17 02:11:00,60.9,60.6,29.95,SSE,154,0.0,0.0,99,0.00,,---,0.00,VWS V14.01,2013-05-17 06:11:00,
2013-05-17 02:16:00,61.0,60.7,29.95,SSE,154,0.0,0.0,99,0.00,,---,0.00,VWS V14.01,2013-05-17 06:16:00,
2013-05-17 02:21:00,60.8,60.5,29.95,SSE,154,0.0,0.0,99,0.00,,---,0.00,VWS V14.01,2013-05-17 06:21:00,
2013-05-17 02:26:00,60.3,60.0,29.95,SSE,153,0.0,0.0,99,0.00,,---,0.00,VWS V14.01,2013-05-17 06:26:00,
2013-05-17 02:30:00,60.0,59.7,29.95,SSE,154,0.0,0.0,99,0.00,,---,0.00,VWS V15.00,2013-05-17 06:30:00,
2013-05-17 02:31:00,60.0,59.7,29.95,SSE,153,0.0,0.0,99,0.00,,---,0.00,VWS V14.01,2013-05-17 06:31:00,
2013-05-17 02:36:00,59.7,59.4,29.95,SSE,154,0.0,0.0,99,0.00,,---,0.00,VWS V14.01,2013-05-17 06:36:00,
2013-05-17 02:41:00,59.6,59.3,29.95,SSE,153,0.0,0.0,99,0.00,,---,0.00,VWS V14.01,2013-05-17 06:41:00,
2013-05-17 02:46:00,59.7,59.4,29.96,SSE,154,0.0,0.0,99,0.00,,---,0.00,VWS V14.01,2013-05-17 06:46:00,
2013-05-17 02:51:00,59.7,59.4,29.96,SSE,154,0.0,0.0,99,0.00,,---,0.00,VWS V14.01,2013-05-17 06:51:00,
2013-05-17 02:56:00,59.7,59.4,29.96,SSE,154,0.0,0.0,99,0.00,,---,0.00,VWS V14.01,2013-05-17 06:56:00,
2013-05-17 03:00:00,59.5,59.2,29.96,SSE,154,0.0,0.0,99,0.00,,---,0.00,VWS V15.00,2013-05-17 07:00:00,
2013-05-17 03:01:00,59.6,59.3,29.96,SSE,153,0.0,0.0,99,0.00,,---,0.00,VWS V14.01,2013-05-17 07:01:00,
2013-05-17 03:06:00,59.6,59.3,29.96,SSE,153,0.0,0.0,99,0.00,,---,0.00,VWS V14.01,2013-05-17 07:06:00,
2013-05-17 03:11:00,59.7,59.4,29.96,SSE,153,0.0,0.0,99,0.00,,---,0.00,VWS V14.01,2013-05-17 07:11:00,
2013-05-17 03:16:00,59.7,59.4,29.96,SSE,154,0.0,0.0,99,0.00,,---,0.00,VWS V14.01,2013-05-17 07:16:00,
2013-05-17 03:21:00,59.8,59.5,29.95,SSE,153,0.0,0.0,99,0.00,,---,0.00,VWS V14.01,2013-05-17 07:21:00,
2013-05-17 03:26:00,59.6,59.3,29.96,SSE,153,0.0,0.0,99,0.00,,---,0.00,VWS V14.01,2013-05-17 07:26:00,
2013-05-17 03:30:00,59.6,59.3,29.96,SSE,154,0.0,0.0,99,0.00,,---,0.00,VWS V15.00,2013-05-17 07:30:00,
2013-05-17 03:31:00,59.6,59.3,29.96,SSE,153,0.0,0.0,99,0.00,,---,0.00,VWS V14.01,2013-05-17 07:31:00,
2013-05-17 03:36:00,59.4,59.1,29.96,SSE,154,0.0,0.0,99,0.00,,---,0.00,VWS V14.01,2013-05-17 07:36:00,
2013-05-17 03:41:00,59.3,59.0,29.96,SSE,154,0.0,0.0,99,0.00,,---,0.00,VWS V14.01,2013-05-17 07:41:00,
2013-05-17 03:46:00,59.6,59.3,29.96,SSE,154,0.0,0.0,99,0.00,,---,0.00,VWS V14.01,2013-05-17 07:46:00,
2013-05-17 03:51:00,59.5,59.2,29.95,SSE,154,0.0,0.0,99,0.00,,---,0.00,VWS V14.01,2013-05-17 07:51:00,
2013-05-17 03:56:00,59.6,59.3,29.95,SSE,154,0.0,0.0,99,0.00,,---,0.00,VWS V14.01,2013-05-17 07:56:00,
2013-05-17 04:00:00,59.5,59.2,29.95,SSE,154,0.0,0.0,99,0.00,,---,0.00,VWS V15.00,2013-05-17 08:00:00,
2013-05-17 04:01:00,59.5,59.2,29.95,SSE,154,0.0,0.0,99,0.00,,---,0.00,VWS V14.01,2013-05-17 08:01:00,
2013-05-17 04:06:00,59.4,59.1,29.96,SSE,154,0.0,0.0,99,0.00,,---,0.00,VWS V14.01,2013-05-17 08:06:00,
2013-05-17 04:11:00,59.3,59.0,29.96,SSE,153,0.0,0.0,99,0.00,,---,0.00,VWS V14.01,2013-05-17 08:11:00,
2013-05-17 04:16:00,59.6,59.6,29.96,SSE,153,0.0,0.0,100,0.00,,---,0.00,VWS V14.01,2013-05-17 08:16:00,
2013-05-17 04:21:00,59.8,59.8,29.96,SSE,153,0.0,0.0,100,0.00,,---,0.00,VWS V14.01,2013-05-17 08:21:00,
2013-05-17 04:25:00,60.2,60.2,29.96,SSE,153,0.0,0.0,100,0.00,,---,0.00,VWS V14.01,2013-05-17 08:25:00,
2013-05-17 04:30:00,60.4,60.4,29.96,SSE,154,0.0,0.0,100,0.00,,---,0.00,VWS V14.01,2013-05-17 08:30:00,
2013-05-17 04:35:00,60.6,60.6,29.96,SSE,154,0.0,0.0,100,0.00,,---,0.00,VWS V14.01,2013-05-17 08:35:00,
2013-05-17 04:40:00,60.7,60.7,29.96,SSE,154,0.0,0.0,100,0.00,,---,0.00,VWS V14.01,2013-05-17 08:40:00,
2013-05-17 04:45:00,60.7,60.7,29.96,SSE,154,0.0,0.0,100,0.00,,---,0.00,VWS V14.01,2013-05-17 08:45:00,
2013-05-17 04:50:00,60.8,60.8,29.96,SSE,153,0.0,0.0,100,0.00,,---,0.00,VWS V14.01,2013-05-17 08:50:00,
2013-05-17 04:55:00,61.0,61.0,29.96,SSE,154,0.0,0.0,100,0.00,,---,0.00,VWS V14.01,2013-05-17 08:55:00,
2013-05-17 05:00:00,61.0,61.0,29.96,SSE,154,0.0,0.0,100,0.00,,---,0.00,VWS V14.01,2013-05-17 09:00:00,
2013-05-17 05:05:00,60.9,60.9,29.96,SSE,154,0.0,0.0,100,0.00,,---,0.00,VWS V14.01,2013-05-17 09:05:00,
2013-05-17 05:10:00,60.8,60.8,29.96,SSE,153,0.0,0.0,100,0.00,,---,0.00,VWS V14.01,2013-05-17 09:10:00,
2013-05-17 05:15:00,60.9,60.9,29.96,SSE,154,0.0,0.0,100,0.00,,---,0.00,VWS V14.01,2013-05-17 09:15:00,
2013-05-17 05:20:00,60.9,60.9,29.96,SSE,154,0.0,0.0,100,0.00,,---,0.00,VWS V14.01,2013-05-17 09:20:00,
2013-05-17 05:25:00,61.0,61.0,29.96,SSE,154,0.0,0.0,100,0.00,,---,0.00,VWS V14.01,2013-05-17 09:25:00,
2013-05-17 05:30:00,61.0,61.0,29.96,SSE,154,0.0,0.0,100,0.00,,---,0.00,VWS V14.01,2013-05-17 09:30:00,
2013-05-17 05:35:00,60.9,60.9,29.96,SSE,153,0.0,0.0,100,0.00,,---,0.00,VWS V14.01,2013-05-17 09:35:00,
2013-05-17 05:40:00,61.0,61.0,29.96,SSE,154,0.0,0.0,100,0.00,,---,0.00,VWS V14.01,2013-05-17 09:40:00,
2013-05-17 05:45:00,61.1,61.1,29.96,SSE,154,0.0,0.0,100,0.00,,---,0.00,VWS V14.01,2013-05-17 09:45:00,
2013-05-17 05:50:00,61.0,61.0,29.96,SSE,153,0.0,0.0,100,0.00,,---,0.00,VWS V14.01,2013-05-17 09:50:00,
2013-05-17 05:55:00,60.9,60.9,29.96,SSE,154,0.0,0.0,100,0.00,,---,0.00,VWS V14.01,2013-05-17 09:55:00,
2013-05-17 06:00:00,61.0,61.0,29.97,SSE,154,0.0,0.0,100,0.00,,---,0.00,VWS V14.01,2013-05-17 10:00:00,
2013-05-17 06:05:00,61.1,61.1,29.97,SSE,152,0.0,0.0,100,0.00,,---,0.00,VWS V14.01,2013-05-17 10:05:00,
2013-05-17 06:10:00,61.2,61.2,29.97,SE,143,0.0,0.0,100,0.00,,---,0.00,VWS V14.01,2013-05-17 10:10:00,
2013-05-17 06:15:00,61.2,61.2,29.97,SE,143,0.0,0.0,100,0.00,,---,0.00,VWS V14.01,2013-05-17 10:15:00,
2013-05-17 06:20:00,61.2,61.2,29.98,SE,137,0.0,0.0,100,0.00,,---,0.00,VWS V14.01,2013-05-17 10:20:00,
2013-05-17 06:25:00,61.2,61.2,29.98,SE,130,0.0,2.0,100,0.00,,---,0.00,VWS V14.01,2013-05-17 10:25:00,
2013-05-17 06:30:00,61.2,61.2,29.98,ESE,110,0.0,2.0,100,0.00,,---,0.00,VWS V14.01,2013-05-17 10:30:00,
2013-05-17 06:35:00,61.2,61.2,29.98,ESE,113,1.0,2.0,100,0.00,,---,0.00,VWS V14.01,2013-05-17 10:35:00,
2013-05-17 06:40:00,61.2,61.2,29.98,ESE,110,0.0,2.0,100,0.00,,---,0.00,VWS V14.01,2013-05-17 10:40:00,
2013-05-17 06:45:00,61.2,61.2,29.98,East,95,0.0,2.0,100,0.00,,---,0.00,VWS V14.01,2013-05-17 10:45:00,
2013-05-17 06:50:00,61.2,61.2,29.99,East,86,1.0,3.0,100,0.00,,---,0.00,VWS V14.01,2013-05-17 10:50:00,
2013-05-17 06:55:00,61.2,61.2,29.99,SE,131,0.0,3.0,100,0.00,,---,0.00,VWS V14.01,2013-05-17 10:55:00,
2013-05-17 07:00:00,61.3,61.3,29.99,SSE,160,0.0,3.0,100,0.00,,---,0.00,VWS V14.01,2013-05-17 11:00:00,
2013-05-17 07:05:00,61.4,61.4,29.99,ESE,122,0.0,0.0,100,0.00,,---,0.00,VWS V14.01,2013-05-17 11:05:00,
2013-05-17 07:10:00,61.4,61.4,29.99,ENE,75,0.0,0.0,100,0.00,,---,0.00,VWS V14.01,2013-05-17 11:10:00,
2013-05-17 07:15:00,61.5,61.5,29.99,East,96,0.0,0.0,100,0.00,,---,0.00,VWS V14.01,2013-05-17 11:15:00,
2013-05-17 07:20:00,61.6,61.6,29.99,NE,44,0.0,0.0,100,0.00,,---,0.00,VWS V14.01,2013-05-17 11:20:00,
2013-05-17 07:25:00,61.8,61.8,29.99,ENE,67,0.0,0.0,100,0.00,,---,0.00,VWS V14.01,2013-05-17 11:25:00,
2013-05-17 07:30:00,62.1,62.1,30.00,SE,126,0.0,0.0,100,0.00,,---,0.00,VWS V14.01,2013-05-17 11:30:00,
2013-05-17 07:35:00,62.3,62.3,30.00,ENE,70,0.0,0.0,100,0.00,,---,0.00,VWS V14.01,2013-05-17 11:35:00,
2013-05-17 07:40:00,62.4,62.4,30.00,East,86,0.0,0.0,100,0.00,,---,0.00,VWS V14.01,2013-05-17 11:40:00,
2013-05-17 07:45:00,62.7,62.7,30.00,East,86,0.0,0.0,100,0.00,,---,0.00,VWS V14.01,2013-05-17 11:45:00,
2013-05-17 07:50:00,62.9,62.9,30.00,East,86,0.0,0.0,100,0.00,,---,0.00,VWS V14.01,2013-05-17 11:50:00,
2013-05-17 07:55:00,63.2,63.2,30.00,SE,141,0.0,1.0,100,0.00,,---,0.00,VWS V14.01,2013-05-17 11:55:00,
2013-05-17 08:00:00,63.5,63.5,30.00,ESE,122,0.0,2.0,100,0.00,,---,0.00,VWS V14.01,2013-05-17 12:00:00,
2013-05-17 08:05:00,64.0,64.0,30.00,SE,146,0.0,1.0,100,0.00,,---,0.00,VWS V14.01,2013-05-17 12:05:00,
2013-05-17 08:10:00,63.9,63.9,30.00,East,90,0.0,1.0,100,0.00,,---,0.00,VWS V14.01,2013-05-17 12:10:00,
2013-05-17 08:15:00,64.2,64.2,30.00,East,91,0.0,1.0,100,0.00,,---,0.00,VWS V14.01,2013-05-17 12:15:00,
2013-05-17 08:20:00,64.4,64.4,30.00,East,91,0.0,1.0,100,0.00,,---,0.00,VWS V14.01,2013-05-17 12:20:00,
2013-05-17 08:25:00,64.7,64.7,30.00,South,187,0.0,1.0,100,0.00,,---,0.00,VWS V14.01,2013-05-17 12:25:00,
2013-05-17 08:30:00,64.8,64.5,30.01,SSE,159,0.0,1.0,99,0.00,,---,0.00,VWS V14.01,2013-05-17 12:30:00,
2013-05-17 08:35:00,65.1,64.8,30.00,SSE,158,0.0,0.0,99,0.00,,---,0.00,VWS V14.01,2013-05-17 12:35:00,
2013-05-17 08:40:00,65.2,64.9,30.01,SSE,155,0.0,0.0,99,0.00,,---,0.00,VWS V14.01,2013-05-17 12:40:00,
2013-05-17 08:45:00,65.5,65.2,30.01,SE,127,0.0,0.0,99,0.00,,---,0.00,VWS V14.01,2013-05-17 12:45:00,
2013-05-17 08:50:00,66.2,65.9,30.01,SE,127,0.0,0.0,99,0.00,,---,0.00,VWS V14.01,2013-05-17 12:50:00,
2013-05-17 08:55:00,66.8,66.2,30.01,SE,127,0.0,0.0,98,0.00,,---,0.00,VWS V14.01,2013-05-17 12:55:00,
2013-05-17 09:00:00,67.1,65.9,30.01,SE,127,0.0,0.0,96,0.00,,---,0.00,VWS V14.01,2013-05-17 13:00:00,
2013-05-17 09:05:00,67.7,66.2,30.01,SE,127,0.0,0.0,95,0.00,,---,0.00,VWS V14.01,2013-05-17 13:05:00,
2013-05-17 09:10:00,69.1,67.6,30.01,SE,127,0.0,0.0,95,0.00,,---,0.00,VWS V14.01,2013-05-17 13:10:00,
2013-05-17 09:15:00,70.2,67.1,30.01,SE,143,0.0,0.0,90,0.00,,---,0.00,VWS V14.01,2013-05-17 13:15:00,
2013-05-17 09:20:00,71.4,68.0,30.01,SE,143,0.0,0.0,89,0.00,,---,0.00,VWS V14.01,2013-05-17 13:20:00,
2013-05-17 09:25:00,72.3,66.8,30.01,East,90,0.0,0.0,83,0.00,,---,0.00,VWS V14.01,2013-05-17 13:25:00,
2013-05-17 09:30:00,72.7,65.8,30.01,ESE,111,0.0,0.0,79,0.00,,---,0.00,VWS V14.01,2013-05-17 13:30:00,
2013-05-17 09:35:00,73.6,67.1,30.01,SSE,162,0.0,1.0,80,0.00,,---,0.00,VWS V14.01,2013-05-17 13:35:00,
2013-05-17 09:40:00,74.0,65.6,30.01,ENE,60,0.0,3.0,75,0.00,,---,0.00,VWS V14.01,2013-05-17 13:40:00,
2013-05-17 09:45:00,74.2,66.2,30.01,South,176,3.0,3.0,76,0.00,,---,0.00,VWS V14.01,2013-05-17 13:45:00,
2013-05-17 09:50:00,74.3,65.9,30.01,ESE,107,2.0,4.0,75,0.00,,---,0.00,VWS V14.01,2013-05-17 13:50:00,
2013-05-17 09:55:00,74.2,65.8,30.01,ENE,72,1.0,4.0,75,0.00,,---,0.00,VWS V14.01,2013-05-17 13:55:00,
2013-05-17 10:00:00,74.6,65.0,30.01,South,169,2.0,6.0,72,0.00,,---,0.00,VWS V14.01,2013-05-17 14:00:00,
2013-05-17 10:05:00,74.4,64.8,30.01,SE,132,0.0,5.0,72,0.00,,---,0.00,VWS V14.01,2013-05-17 14:05:00,
2013-05-17 10:10:00,74.8,65.6,30.01,SSE,152,2.0,5.0,73,0.00,,---,0.00,VWS V14.01,2013-05-17 14:10:00,
2013-05-17 10:15:00,74.5,64.1,30.01,SSW,197,3.0,5.0,70,0.00,,---,0.00,VWS V14.01,2013-05-17 14:15:00,
2013-05-17 10:20:00,74.1,64.5,30.01,SSE,158,1.0,5.0,72,0.00,,---,0.00,VWS V14.01,2013-05-17 14:20:00,
2013-05-17 10:25:00,74.0,65.6,30.02,East,82,3.0,5.0,75,0.00,,---,0.00,VWS V14.01,2013-05-17 14:25:00,
2013-05-17 10:30:00,73.9,67.0,30.02,SSE,160,0.0,5.0,79,0.00,,---,0.00,VWS V14.01,2013-05-17 14:30:00,
2013-05-17 10:35:00,74.0,66.3,30.02,South,188,2.0,4.0,77,0.00,,---,0.00,VWS V14.01,2013-05-17 14:35:00,
2013-05-17 10:40:00,73.9,66.2,30.02,SE,130,2.0,4.0,77,0.00,,---,0.00,VWS V14.01,2013-05-17 14:40:00,
2013-05-17 10:45:00,74.2,66.5,30.02,SE,131,2.0,4.0,77,0.00,,---,0.00,VWS V14.01,2013-05-17 14:45:00,
2013-05-17 10:50:00,74.3,64.7,30.02,SE,138,3.0,5.0,72,0.00,,---,0.00,VWS V14.01,2013-05-17 14:50:00,
2013-05-17 10:55:00,74.8,65.6,30.01,ESE,102,1.0,5.0,73,0.00,,---,0.00,VWS V14.01,2013-05-17 14:55:00,
2013-05-17 11:00:00,75.5,65.4,30.01,SE,125,0.0,5.0,71,0.00,,---,0.00,VWS V14.01,2013-05-17 15:00:00,
2013-05-17 11:05:00,75.7,65.2,30.01,ESE,109,2.0,3.0,70,0.00,,---,0.00,VWS V14.01,2013-05-17 15:05:00,
2013-05-17 11:10:00,76.0,65.9,30.01,East,85,2.0,4.0,71,0.00,,---,0.00,VWS V14.01,2013-05-17 15:10:00,
2013-05-17 11:15:00,76.0,65.5,30.01,SE,124,1.0,4.0,70,0.00,,---,0.00,VWS V14.01,2013-05-17 15:15:00,
2013-05-17 11:20:00,76.0,65.5,30.01,NE,55,3.0,4.0,70,0.00,,---,0.00,VWS V14.01,2013-05-17 15:20:00,
2013-05-17 11:25:00,76.2,66.1,30.01,SSW,204,2.0,5.0,71,0.00,,---,0.00,VWS V14.01,2013-05-17 15:25:00,
2013-05-17 11:30:00,76.3,65.0,30.01,NE,47,2.0,5.0,68,0.00,,---,0.00,VWS V14.01,2013-05-17 15:30:00,
2013-05-17 11:35:00,76.1,63.9,30.02,SSE,164,3.0,5.0,66,0.00,,---,0.00,VWS V14.01,2013-05-17 15:35:00,
2013-05-17 11:40:00,76.1,64.8,30.02,SE,131,1.0,5.0,68,0.00,,---,0.00,VWS V14.01,2013-05-17 15:40:00,
2013-05-17 11:45:00,76.3,65.4,30.02,East,80,0.0,5.0,69,0.00,,---,0.00,VWS V14.01,2013-05-17 15:45:00,
2013-05-17 11:50:00,76.4,65.1,30.02,ESE,120,3.0,6.0,68,0.00,,---,0.00,VWS V14.01,2013-05-17 15:50:00,
2013-05-17 11:55:00,76.5,65.6,30.02,SSW,208,1.0,6.0,69,0.00,,---,0.00,VWS V14.01,2013-05-17 15:55:00,
2013-05-17 12:00:00,77.0,65.2,30.02,SE,141,3.0,6.0,67,0.00,,---,0.00,VWS V14.01,2013-05-17 16:00:00,
2013-05-17 12:05:00,77.3,65.9,30.02,SSE,155,0.0,4.0,68,0.00,,---,0.00,VWS V14.01,2013-05-17 16:05:00,
2013-05-17 12:10:00,77.2,65.0,30.02,SSW,198,2.0,5.0,66,0.00,,---,0.00,VWS V14.01,2013-05-17 16:10:00,
2013-05-17 12:15:00,77.2,65.0,30.02,East,82,0.0,5.0,66,0.00,,---,0.00,VWS V14.01,2013-05-17 16:15:00,
2013-05-17 12:20:00,77.2,65.4,30.02,East,101,2.0,5.0,67,0.00,,---,0.00,VWS V14.01,2013-05-17 16:20:00,
2013-05-17 12:25:00,77.0,64.3,30.02,East,99,1.0,5.0,65,0.00,,---,0.00,VWS V14.01,2013-05-17 16:25:00,
2013-05-17 12:30:00,77.1,64.4,30.02,SSW,200,4.0,5.0,65,0.00,,---,0.00,VWS V14.01,2013-05-17 16:30:00,
2013-05-17 12:35:00,77.1,64.9,30.02,ESE,118,2.0,5.0,66,0.00,,---,0.00,VWS V14.01,2013-05-17 16:35:00,
2013-05-17 12:40:00,77.3,65.1,30.01,SE,131,2.0,6.0,66,0.00,,---,0.00,VWS V14.01,2013-05-17 16:40:00,
2013-05-17 12:45:00,77.9,65.2,30.01,ESE,113,0.0,6.0,65,0.00,,---,0.00,VWS V14.01,2013-05-17 16:45:00,
2013-05-17 12:50:00,78.3,66.0,30.01,ESE,120,2.0,6.0,66,0.00,,---,0.00,VWS V14.01,2013-05-17 16:50:00,
2013-05-17 12:55:00,78.6,66.3,30.01,SSE,152,2.0,7.0,66,0.00,,---,0.00,VWS V14.01,2013-05-17 16:55:00,
2013-05-17 13:00:00,78.9,65.2,30.01,SW,216,4.0,7.0,63,0.00,,---,0.00,VWS V14.01,2013-05-17 17:00:00,
2013-05-17 13:05:00,78.6,65.4,30.01,NE,44,3.0,6.0,64,0.00,,---,0.00,VWS V14.01,2013-05-17 17:05:00,
2013-05-17 13:10:00,78.4,66.1,30.01,NW,305,1.0,7.0,66,0.00,,---,0.00,VWS V14.01,2013-05-17 17:10:00,
2013-05-17 13:15:00,78.3,65.1,30.01,SE,132,1.0,7.0,64,0.00,,---,0.00,VWS V14.01,2013-05-17 17:15:00,
2013-05-17 13:20:00,78.7,66.4,30.01,SSW,198,2.0,7.0,66,0.00,,---,0.00,VWS V14.01,2013-05-17 17:20:00,
2013-05-17 13:25:00,78.9,65.2,30.01,East,91,2.0,8.0,63,0.00,,---,0.00,VWS V14.01,2013-05-17 17:25:00,
2013-05-17 13:30:00,78.7,64.6,30.01,ESE,104,1.0,8.0,62,0.00,,---,0.00,VWS V14.01,2013-05-17 17:30:00,
2013-05-17 13:35:00,79.3,65.6,30.00,South,186,3.0,4.0,63,0.00,,---,0.00,VWS V14.01,2013-05-17 17:35:00,
2013-05-17 13:40:00,80.0,65.8,30.00,ESE,110,3.0,8.0,62,0.00,,---,0.00,VWS V14.01,2013-05-17 17:40:00,
2013-05-17 13:45:00,80.0,66.3,30.00,ESE,115,4.0,8.0,63,0.00,,---,0.00,VWS V14.01,2013-05-17 17:45:00,
2013-05-17 13:50:00,80.1,66.4,30.00,SE,146,5.0,8.0,63,0.00,,---,0.00,VWS V14.01,2013-05-17 17:50:00,
2013-05-17 13:55:00,80.1,65.4,30.00,SE,125,1.0,8.0,61,0.00,,---,0.00,VWS V14.01,2013-05-17 17:55:00,
2013-05-17 14:00:00,80.4,66.2,30.00,SE,146,6.0,8.0,62,0.00,,---,0.00,VWS V14.01,2013-05-17 18:00:00,
2013-05-17 14:05:00,80.5,66.8,29.99,ESE,113,2.0,5.0,63,0.00,,---,0.00,VWS V14.01,2013-05-17 18:05:00,
2013-05-17 14:10:00,80.8,66.1,29.99,SSE,150,2.0,6.0,61,0.00,,---,0.00,VWS V14.01,2013-05-17 18:10:00,
2013-05-17 14:15:00,81.0,66.8,29.99,SE,134,0.0,6.0,62,0.00,,---,0.00,VWS V14.01,2013-05-17 18:15:00,
2013-05-17 14:20:00,81.2,66.9,29.98,North,358,5.0,11.0,62,0.00,,---,0.00,VWS V14.01,2013-05-17 18:20:00,
2013-05-17 14:25:00,81.1,65.9,29.98,ENE,63,0.0,11.0,60,0.00,,---,0.00,VWS V14.01,2013-05-17 18:25:00,
2013-05-17 14:30:00,80.7,65.5,29.98,SSE,167,8.0,11.0,60,0.00,,---,0.00,VWS V14.01,2013-05-17 18:30:00,
2013-05-17 14:35:00,80.7,66.0,29.98,SW,226,7.0,9.0,61,0.00,,---,0.00,VWS V14.01,2013-05-17 18:35:00,
2013-05-17 14:40:00,81.1,66.4,29.98,SSE,150,3.0,9.0,61,0.00,,---,0.00,VWS V14.01,2013-05-17 18:40:00,
2013-05-17 14:45:00,81.3,65.1,29.98,SE,136,2.0,9.0,58,0.00,,---,0.00,VWS V14.01,2013-05-17 18:45:00,
2013-05-17 14:50:00,81.5,64.8,29.97,ESE,118,6.0,9.0,57,0.00,,---,0.00,VWS V14.01,2013-05-17 18:50:00,
2013-05-17 14:55:00,80.9,64.8,29.97,SE,136,4.0,9.0,58,0.00,,---,0.00,VWS V14.01,2013-05-17 18:55:00,
2013-05-17 15:00:00,80.3,64.7,29.97,SSW,210,5.0,9.0,59,0.00,,---,0.00,VWS V14.01,2013-05-17 19:00:00,
2013-05-17 15:05:00,79.8,64.7,29.97,SSW,203,4.0,7.0,60,0.00,,---,0.00,VWS V14.01,2013-05-17 19:05:00,
2013-05-17 15:10:00,79.3,64.7,29.97,South,177,5.0,8.0,61,0.00,,---,0.00,VWS V14.01,2013-05-17 19:10:00,
2013-05-17 15:15:00,78.9,65.2,29.97,ESE,122,4.0,8.0,63,0.00,,---,0.00,VWS V14.01,2013-05-17 19:15:00,
2013-05-17 15:20:00,78.7,65.5,29.97,South,179,0.0,8.0,64,0.00,,---,0.00,VWS V14.01,2013-05-17 19:20:00,
2013-05-17 15:25:00,78.5,65.3,29.97,SSE,167,4.0,8.0,64,0.00,,---,0.00,VWS V14.01,2013-05-17 19:25:00,
2013-05-17 15:30:00,78.2,65.9,29.98,SSW,195,4.0,8.0,66,0.00,,---,0.00,VWS V14.01,2013-05-17 19:30:00,
2013-05-17 15:35:00,77.8,66.4,29.98,SSE,160,4.0,7.0,68,0.00,,---,0.00,VWS V14.01,2013-05-17 19:35:00,
2013-05-17 15:40:00,76.3,63.2,29.99,South,185,5.0,13.0,64,0.00,,---,0.00,VWS V14.01,2013-05-17 19:40:00,
2013-05-17 15:45:00,73.9,60.5,30.00,SSE,166,6.0,14.0,63,0.00,,---,0.00,VWS V14.01,2013-05-17 19:45:00,
2013-05-17 15:50:00,72.0,60.5,29.99,SW,217,3.0,14.0,67,0.00,,---,0.00,VWS V14.01,2013-05-17 19:50:00,
2013-05-17 15:55:00,70.4,60.6,30.00,SW,221,3.0,14.0,71,0.00,,---,0.00,VWS V14.01,2013-05-17 19:55:00,
2013-05-17 16:00:00,69.3,61.8,30.00,SSE,147,4.0,14.0,77,0.03,,---,0.03,VWS V14.01,2013-05-17 20:00:00,
2013-05-17 16:05:00,67.4,62.4,30.00,South,172,3.0,15.0,84,0.14,,---,0.14,VWS V14.01,2013-05-17 20:05:00,
2013-05-17 16:10:00,66.2,62.2,30.00,SSW,194,2.0,15.0,87,0.17,,---,0.17,VWS V14.01,2013-05-17 20:10:00,
2013-05-17 16:15:00,65.6,62.3,30.00,SSE,149,4.0,15.0,89,0.18,,---,0.18,VWS V14.01,2013-05-17 20:15:00,
2013-05-17 16:20:00,65.3,62.3,30.00,SSE,155,6.0,15.0,90,0.19,,---,0.19,VWS V14.01,2013-05-17 20:20:00,
2013-05-17 16:25:00,64.9,61.9,30.00,SSE,162,8.0,15.0,90,0.22,,---,0.22,VWS V14.01,2013-05-17 20:25:00,
2013-05-17 16:30:00,64.4,61.7,30.00,ESE,108,2.0,15.0,91,0.24,,---,0.24,VWS V14.01,2013-05-17 20:30:00,
2013-05-17 16:35:00,64.2,61.8,30.00,SW,225,0.0,3.0,92,0.26,,---,0.26,VWS V14.01,2013-05-17 20:35:00,
2013-05-17 16:40:00,64.1,61.7,29.99,NNE,19,0.0,3.0,92,0.26,,---,0.26,VWS V14.01,2013-05-17 20:40:00,
2013-05-17 16:45:00,64.1,62.0,29.99,NE,41,0.0,3.0,93,0.27,,---,0.27,VWS V14.01,2013-05-17 20:45:00,
2013-05-17 16:50:00,64.1,62.0,29.99,NNE,19,0.0,3.0,93,0.28,,---,0.28,VWS V14.01,2013-05-17 20:50:00,
2013-05-17 16:55:00,64.2,62.1,29.98,East,92,0.0,3.0,93,0.28,,---,0.28,VWS V14.01,2013-05-17 20:55:00,
2013-05-17 17:00:00,64.4,62.3,29.99,East,91,0.0,3.0,93,0.28,,---,0.28,VWS V14.01,2013-05-17 21:00:00,
2013-05-17 17:05:00,64.8,63.0,29.99,East,91,0.0,0.0,94,0.20,,---,0.28,VWS V14.01,2013-05-17 21:05:00,
2013-05-17 17:10:00,65.2,63.4,29.98,East,90,0.0,0.0,94,0.20,,---,0.28,VWS V14.01,2013-05-17 21:10:00,
2013-05-17 17:15:00,65.7,64.2,29.98,East,90,0.0,0.0,95,0.20,,---,0.28,VWS V14.01,2013-05-17 21:15:00,
2013-05-17 17:20:00,66.5,65.0,29.98,East,91,0.0,0.0,95,0.20,,---,0.28,VWS V14.01,2013-05-17 21:20:00,
2013-05-17 17:25:00,67.1,65.3,29.99,SE,134,0.0,0.0,94,0.20,,---,0.28,VWS V14.01,2013-05-17 21:25:00,
2013-05-17 17:30:00,68.2,66.7,29.99,SE,137,0.0,0.0,95,0.20,,---,0.28,VWS V14.01,2013-05-17 21:30:00,
2013-05-17 17:35:00,68.8,66.1,29.99,SE,138,2.0,2.0,91,0.03,,---,0.28,VWS V14.01,2013-05-17 21:35:00,
2013-05-17 17:40:00,69.2,65.5,29.99,East,101,1.0,4.0,88,0.03,,---,0.28,VWS V14.01,2013-05-17 21:40:00,
2013-05-17 17:45:00,69.4,65.0,29.99,SSW,207,0.0,4.0,86,0.03,,---,0.28,VWS V14.01,2013-05-17 21:45:00,
2013-05-17 17:50:00,69.6,65.9,29.99,SSW,207,0.0,4.0,88,0.03,,---,0.28,VWS V14.01,2013-05-17 21:50:00,
2013-05-17 17:55:00,69.7,66.3,29.99,SSW,204,0.0,4.0,89,0.03,,---,0.28,VWS V14.01,2013-05-17 21:55:00,
2013-05-17 18:00:00,69.9,66.8,29.99,SE,134,0.0,4.0,90,0.03,,---,0.28,VWS V14.01,2013-05-17 22:00:00,
2013-05-17 18:05:00,70.0,66.6,29.99,SSE,166,0.0,0.0,89,0.00,,---,0.28,VWS V14.01,2013-05-17 22:05:00,
2013-05-17 18:10:00,70.1,66.7,29.99,SSW,195,0.0,0.0,89,0.00,,---,0.28,VWS V14.01,2013-05-17 22:10:00,
2013-05-17 18:15:00,70.1,67.0,29.99,South,169,0.0,0.0,90,0.00,,---,0.28,VWS V14.01,2013-05-17 22:15:00,
2013-05-17 18:20:00,69.9,66.8,29.98,South,186,0.0,0.0,90,0.00,,---,0.28,VWS V14.01,2013-05-17 22:20:00,
2013-05-17 18:25:00,69.9,67.2,29.99,South,187,0.0,0.0,91,0.00,,---,0.28,VWS V14.01,2013-05-17 22:25:00,
2013-05-17 18:30:00,69.9,67.2,29.99,SE,143,0.0,1.0,91,0.00,,---,0.28,VWS V14.01,2013-05-17 22:30:00,
2013-05-17 18:35:00,70.0,67.3,29.99,SSE,148,0.0,1.0,91,0.00,,---,0.28,VWS V14.01,2013-05-17 22:35:00,
2013-05-17 18:40:00,70.0,67.6,29.99,SE,139,0.0,1.0,92,0.00,,---,0.28,VWS V14.01,2013-05-17 22:40:00,
2013-05-17 18:44:00,69.8,67.4,29.99,SE,131,0.0,1.0,92,0.00,,---,0.28,VWS V14.01,2013-05-17 22:44:00,
2013-05-17 18:49:00,69.6,67.5,29.99,SE,128,0.0,1.0,93,0.00,,---,0.28,VWS V14.01,2013-05-17 22:49:00,
2013-05-17 18:54:00,69.6,67.5,29.99,SE,128,0.0,1.0,93,0.00,,---,0.28,VWS V14.01,2013-05-17 22:54:00,
2013-05-17 18:59:00,69.4,67.3,29.99,SE,129,0.0,1.0,93,0.00,,---,0.28,VWS V14.01,2013-05-17 22:59:00,
2013-05-17 19:00:00,69.4,67.3,29.99,SE,129,0.0,1.0,93,0.00,,---,0.28,VWS V15.00,2013-05-17 23:00:00,
2013-05-17 19:04:00,69.3,67.5,29.99,SE,128,0.0,0.0,94,0.00,,---,0.28,VWS V14.01,2013-05-17 23:04:00,
2013-05-17 19:09:00,69.1,67.3,29.99,SE,128,0.0,0.0,94,0.00,,---,0.28,VWS V14.01,2013-05-17 23:09:00,
2013-05-17 19:14:00,69.0,67.2,29.99,East,88,0.0,0.0,94,0.00,,---,0.28,VWS V14.01,2013-05-17 23:14:00,
2013-05-17 19:19:00,68.9,67.1,29.99,East,86,0.0,0.0,94,0.00,,---,0.28,VWS V14.01,2013-05-17 23:19:00,
2013-05-17 19:24:00,68.8,67.3,29.99,East,85,0.0,0.0,95,0.00,,---,0.28,VWS V14.01,2013-05-17 23:24:00,
2013-05-17 19:29:00,68.8,67.3,29.99,East,85,0.0,0.0,95,0.00,,---,0.28,VWS V14.01,2013-05-17 23:29:00,
2013-05-17 19:30:00,68.8,67.3,29.99,East,88,0.0,0.0,95,0.00,,---,0.28,VWS V15.00,2013-05-17 23:30:00,
2013-05-17 19:34:00,68.8,67.3,29.99,East,97,0.0,0.0,95,0.00,,---,0.28,VWS V14.01,2013-05-17 23:34:00,
2013-05-17 19:39:00,68.8,67.3,30.00,East,83,0.0,0.0,95,0.00,,---,0.28,VWS V14.01,2013-05-17 23:39:00,
2013-05-17 19:44:00,68.7,66.9,30.00,East,94,0.0,0.0,94,0.00,,---,0.28,VWS V14.01,2013-05-17 23:44:00,
2013-05-17 19:49:00,68.6,66.8,30.00,East,101,0.0,0.0,94,0.00,,---,0.28,VWS V14.01,2013-05-17 23:49:00,
2013-05-17 19:54:00,68.6,66.8,30.00,ESE,111,0.0,0.0,94,0.00,,---,0.28,VWS V14.01,2013-05-17 23:54:00,
2013-05-17 19:59:00,68.6,66.8,30.00,ESE,119,0.0,0.0,94,0.00,,---,0.28,VWS V14.01,2013-05-17 23:59:00,
2013-05-17 20:00:00,68.6,66.8,30.01,ESE,119,0.0,0.0,94,0.00,,---,0.28,VWS V15.00,2013-05-18 00:00:00,
2013-05-17 20:04:00,68.5,66.7,30.01,ESE,110,0.0,2.0,94,0.00,,---,0.28,VWS V14.01,2013-05-18 00:04:00,
2013-05-17 20:09:00,68.5,66.7,30.01,SE,124,0.0,2.0,94,0.00,,---,0.28,VWS V14.01,2013-05-18 00:09:00,
2013-05-17 20:14:00,68.5,66.7,30.01,East,96,0.0,2.0,94,0.00,,---,0.28,VWS V14.01,2013-05-18 00:14:00,
2013-05-17 20:19:00,68.4,66.6,30.01,East,95,0.0,2.0,94,0.00,,---,0.28,VWS V14.01,2013-05-18 00:19:00,
2013-05-17 20:24:00,68.4,66.6,30.01,SE,141,0.0,2.0,94,0.00,,---,0.28,VWS V14.01,2013-05-18 00:24:00,
2013-05-17 20:29:00,68.3,66.5,30.01,East,88,0.0,3.0,94,0.00,,---,0.28,VWS V14.01,2013-05-18 00:29:00,
2013-05-17 20:30:00,68.3,66.8,30.01,ESE,120,0.0,3.0,95,0.00,,---,0.28,VWS V15.00,2013-05-18 00:30:00,
2013-05-17 20:34:00,68.3,66.8,30.01,ENE,75,0.0,0.0,95,0.00,,---,0.28,VWS V14.01,2013-05-18 00:34:00,
2013-05-17 20:39:00,68.2,66.7,30.01,NNW,347,0.0,0.0,95,0.00,,---,0.28,VWS V14.01,2013-05-18 00:39:00,
2013-05-17 20:44:00,68.0,66.5,30.01,ESE,122,1.0,4.0,95,0.00,,---,0.28,VWS V14.01,2013-05-18 00:44:00,
2013-05-17 20:49:00,67.9,66.4,30.01,ESE,105,0.0,4.0,95,0.00,,---,0.28,VWS V14.01,2013-05-18 00:49:00,
2013-05-17 20:54:00,67.7,66.2,30.01,SE,127,0.0,4.0,95,0.00,,---,0.28,VWS V14.01,2013-05-18 00:54:00,
2013-05-17 20:59:00,67.6,66.1,30.01,ESE,105,0.0,4.0,95,0.00,,---,0.28,VWS V14.01,2013-05-18 00:59:00,
2013-05-17 21:00:00,67.6,66.1,30.01,ESE,106,0.0,4.0,95,0.00,,---,0.28,VWS V15.00,2013-05-18 01:00:00,
2013-05-17 21:04:00,67.5,66.0,30.01,ESE,105,0.0,0.0,95,0.00,,---,0.28,VWS V14.01,2013-05-18 01:04:00,
2013-05-17 21:09:00,67.5,66.0,30.01,SE,136,0.0,0.0,95,0.00,,---,0.28,VWS V14.01,2013-05-18 01:09:00,
2013-05-17 21:14:00,67.4,65.9,30.01,SE,132,0.0,0.0,95,0.00,,---,0.28,VWS V14.01,2013-05-18 01:14:00,
2013-05-17 21:19:00,67.4,65.9,30.01,ESE,106,0.0,1.0,95,0.00,,---,0.28,VWS V14.01,2013-05-18 01:19:00,
2013-05-17 21:24:00,67.3,65.8,30.01,SE,126,0.0,1.0,95,0.00,,---,0.28,VWS V14.01,2013-05-18 01:24:00,
2013-05-17 21:29:00,67.3,65.8,30.01,ESE,112,0.0,1.0,95,0.00,,---,0.28,VWS V14.01,2013-05-18 01:29:00,
2013-05-17 21:30:00,67.2,65.7,30.01,East,82,0.0,1.0,95,0.00,,---,0.28,VWS V15.00,2013-05-18 01:30:00,
2013-05-17 21:34:00,67.2,65.7,30.01,SE,139,0.0,2.0,95,0.00,,---,0.28,VWS V14.01,2013-05-18 01:34:00,
2013-05-17 21:39:00,67.2,65.7,30.01,ENE,63,0.0,2.0,95,0.00,,---,0.28,VWS V14.01,2013-05-18 01:39:00,
2013-05-17 21:44:00,67.2,65.7,30.01,ENE,77,0.0,2.0,95,0.00,,---,0.28,VWS V14.01,2013-05-18 01:44:00,
2013-05-17 21:49:00,67.1,65.6,30.01,ENE,77,0.0,2.0,95,0.00,,---,0.28,VWS V14.01,2013-05-18 01:49:00,
2013-05-17 21:54:00,67.1,65.6,30.01,SE,132,0.0,2.0,95,0.00,,---,0.28,VWS V14.01,2013-05-18 01:54:00,
2013-05-17 21:59:00,67.1,65.3,30.02,East,80,2.0,2.0,94,0.00,,---,0.28,VWS V14.01,2013-05-18 01:59:00,
2013-05-17 22:00:00,67.1,65.3,30.02,ENE,75,0.0,2.0,94,0.00,,---,0.28,VWS V15.00,2013-05-18 02:00:00,
2013-05-17 22:04:00,67.0,65.2,30.02,ESE,122,0.0,0.0,94,0.00,,---,0.28,VWS V14.01,2013-05-18 02:04:00,
2013-05-17 22:09:00,67.0,65.5,30.02,ESE,107,0.0,0.0,95,0.00,,---,0.28,VWS V14.01,2013-05-18 02:09:00,
2013-05-17 22:14:00,67.0,65.5,30.02,ESE,114,1.0,3.0,95,0.00,,---,0.28,VWS V14.01,2013-05-18 02:14:00,
2013-05-17 22:19:00,67.0,65.5,30.02,ESE,121,0.0,3.0,95,0.00,,---,0.28,VWS V14.01,2013-05-18 02:19:00,
2013-05-17 22:24:00,66.9,65.4,30.02,East,81,0.0,3.0,95,0.00,,---,0.28,VWS V14.01,2013-05-18 02:24:00,
2013-05-17 22:29:00,66.8,65.3,30.02,ESE,118,1.0,3.0,95,0.00,,---,0.28,VWS V14.01,2013-05-18 02:29:00,
2013-05-17 22:30:00,66.8,65.3,30.02,North,357,0.0,3.0,95,0.00,,---,0.28,VWS V15.00,2013-05-18 02:30:00,
2013-05-17 22:34:00,66.8,65.3,30.02,ESE,120,1.0,2.0,95,0.00,,---,0.28,VWS V14.01,2013-05-18 02:34:00,
2013-05-17 22:39:00,66.8,65.3,30.02,SE,141,0.0,3.0,95,0.00,,---,0.28,VWS V14.01,2013-05-18 02:39:00,
2013-05-17 22:44:00,66.8,65.3,30.02,ESE,112,0.0,3.0,95,0.00,,---,0.28,VWS V14.01,2013-05-18 02:44:00,
2013-05-17 22:49:00,66.8,65.3,30.02,East,87,0.0,3.0,95,0.00,,---,0.28,VWS V14.01,2013-05-18 02:49:00,
2013-05-17 22:54:00,66.8,65.3,30.03,East,90,0.0,3.0,95,0.00,,---,0.28,VWS V14.01,2013-05-18 02:54:00,
2013-05-17 22:59:00,66.8,65.3,30.02,SE,146,0.0,3.0,95,0.01,,---,0.29,VWS V14.01,2013-05-18 02:59:00,
2013-05-17 23:00:00,66.8,65.3,30.02,SE,146,0.0,3.0,95,0.01,,---,0.29,VWS V15.00,2013-05-18 03:00:00,
2013-05-17 23:04:00,66.8,65.3,30.02,SSE,147,0.0,0.0,95,0.01,,---,0.29,VWS V14.01,2013-05-18 03:04:00,
2013-05-17 23:09:00,66.8,65.3,30.03,SE,146,0.0,0.0,95,0.01,,---,0.29,VWS V14.01,2013-05-18 03:09:00,
2013-05-17 23:14:00,66.7,65.2,30.03,SSE,147,0.0,0.0,95,0.01,,---,0.29,VWS V14.01,2013-05-18 03:14:00,
2013-05-17 23:19:00,66.6,65.4,30.03,SE,146,0.0,0.0,96,0.01,,---,0.29,VWS V14.01,2013-05-18 03:19:00,
2013-05-17 23:24:00,66.5,65.3,30.03,SE,146,0.0,0.0,96,0.01,,---,0.29,VWS V14.01,2013-05-18 03:24:00,
2013-05-17 23:29:00,66.4,65.2,30.02,SE,146,0.0,0.0,96,0.01,,---,0.29,VWS V14.01,2013-05-18 03:29:00,
2013-05-17 23:30:00,66.4,65.2,30.02,SE,146,0.0,0.0,96,0.01,,---,0.29,VWS V15.00,2013-05-18 03:30:00,
2013-05-17 23:34:00,66.4,65.2,30.02,SSE,147,0.0,0.0,96,0.01,,---,0.29,VWS V14.01,2013-05-18 03:34:00,
2013-05-17 23:39:00,66.3,65.1,30.02,ESE,121,0.0,0.0,96,0.01,,---,0.29,VWS V14.01,2013-05-18 03:39:00,
2013-05-17 23:44:00,66.3,65.4,30.02,East,98,0.0,0.0,97,0.01,,---,0.29,VWS V14.01,2013-05-18 03:44:00,
2013-05-17 23:49:00,66.3,65.4,30.02,East,97,0.0,0.0,97,0.01,,---,0.29,VWS V14.01,2013-05-18 03:49:00,
2013-05-17 23:54:00,66.3,65.4,30.02,East,98,0.0,0.0,97,0.01,,---,0.29,VWS V14.01,2013-05-18 03:54:00,
2013-05-17 23:59:00,66.2,65.3,30.02,SE,140,0.0,0.0,97,0.01,,---,0.29,VWS V14.01,2013-05-18 03:59:00,